Time,TemperatureF,DewpointF,PressureIn,WindDirection,WindDirectionDegrees,WindSpeedMPH,WindSpeedGustMPH,Humidity,HourlyPrecipIn,Conditions,Clouds,dailyrainin,SoftwareType,DateUTC
2013-09-02 00:01:00,73.4,73.4,29.86,East,82,0.0,0.0,100,0.00,,,0.00,VWS V13.01,2013-09-02 05:01:00,
2013-09-02 00:06:00,73.6,73.6,29.86,East,82,0.0,0.0,100,0.00,,,0.00,VWS V13.01,2013-09-02 05:06:00,
2013-09-02 00:11:00,73.6,73.6,29.86,East,82,0.0,0.0,100,0.00,,,0.00,VWS V13.01,2013-09-02 05:11:00,
2013-09-02 00:16:00,73.6,73.6,29.86,East,82,0.0,0.0,100,0.00,,,0.00,VWS V13.01,2013-09-02 05:16:00,
2013-09-02 00:21:00,73.6,73.6,29.86,East,82,0.0,0.0,100,0.00,,,0.00,VWS V13.01,2013-09-02 05:21:00,
2013-09-02 00:26:00,73.6,73.6,29.86,East,82,0.0,0.0,100,0.00,,,0.00,VWS V13.01,2013-09-02 05:26:00,
2013-09-02 00:31:00,73.6,73.6,29.86,East,82,0.0,0.0,100,0.00,,,0.00,VWS V13.01,2013-09-02 05:31:00,
2013-09-02 00:36:00,73.6,73.6,29.86,East,82,0.0,0.0,100,0.00,,,0.00,VWS V13.01,2013-09-02 05:36:00,
2013-09-02 00:41:00,73.6,73.6,29.86,East,82,0.0,0.0,100,0.00,,,0.00,VWS V13.01,2013-09-02 05:41:00,
2013-09-02 00:46:00,73.6,73.6,29.86,East,82,0.0,0.0,100,0.00,,,0.00,VWS V13.01,2013-09-02 05:46:00,
2013-09-02 00:51:00,73.6,73.6,29.86,East,82,0.0,0.0,100,0.00,,,0.00,VWS V13.01,2013-09-02 05:51:00,
2013-09-02 00:56:00,73.6,73.6,29.86,East,82,0.0,0.0,100,0.00,,,0.00,VWS V13.01,2013-09-02 05:56:00,
2013-09-02 01:01:00,73.6,73.6,29.86,East,82,0.0,0.0,100,0.00,,,0.00,VWS V13.01,2013-09-02 06:01:00,
2013-09-02 01:06:00,73.6,73.6,29.86,East,83,0.0,0.0,100,0.00,,,0.00,VWS V13.01,2013-09-02 06:06:00,
2013-09-02 01:11:00,73.6,73.6,29.86,East,83,0.0,0.0,100,0.00,,,0.00,VWS V13.01,2013-09-02 06:11:00,
2013-09-02 01:16:00,73.6,73.6,29.86,East,83,0.0,0.0,100,0.00,,,0.00,VWS V13.01,2013-09-02 06:16:00,
2013-09-02 01:21:00,73.6,73.6,29.86,East,83,0.0,0.0,100,0.00,,,0.00,VWS V13.01,2013-09-02 06:21:00,
2013-09-02 01:26:00,73.6,73.6,29.86,East,83,0.0,0.0,100,0.00,,,0.00,VWS V13.01,2013-09-02 06:26:00,
2013-09-02 01:31:00,73.6,73.6,29.86,East,83,0.0,0.0,100,0.00,,,0.00,VWS V13.01,2013-09-02 06:31:00,
2013-09-02 01:36:00,73.6,73.6,29.86,East,83,0.0,0.0,100,0.00,,,0.00,VWS V13.01,2013-09-02 06:36:00,
2013-09-02 01:41:00,73.6,73.6,29.86,East,83,0.0,0.0,100,0.00,,,0.00,VWS V13.01,2013-09-02 06:41:00,
2013-09-02 01:46:00,73.6,73.6,29.83,East,83,0.0,0.0,100,0.00,,,0.00,VWS V13.01,2013-09-02 06:46:00,
2013-09-02 01:51:00,73.6,73.6,29.83,East,83,0.0,0.0,100,0.00,,,0.00,VWS V13.01,2013-09-02 06:51:00,
2013-09-02 01:56:00,73.4,73.4,29.83,East,83,0.0,0.0,100,0.00,,,0.00,VWS V13.01,2013-09-02 06:56:00,
2013-09-02 02:01:00,73.4,73.4,29.83,East,83,0.0,0.0,100,0.00,,,0.00,VWS V13.01,2013-09-02 07:01:00,
2013-09-02 02:06:00,73.4,73.4,29.83,East,83,0.0,0.0,100,0.00,,,0.00,VWS V13.01,2013-09-02 07:06:00,
2013-09-02 02:11:00,73.4,73.4,29.83,East,83,0.0,0.0,100,0.00,,,0.00,VWS V13.01,2013-09-02 07:11:00,
2013-09-02 02:16:00,73.4,73.4,29.83,East,83,0.0,0.0,100,0.00,,,0.00,VWS V13.01,2013-09-02 07:16:00,
2013-09-02 02:21:00,73.4,73.4,29.83,East,83,0.0,0.0,100,0.00,,,0.00,VWS V13.01,2013-09-02 07:21:00,
2013-09-02 02:26:00,73.4,73.4,29.83,East,83,0.0,0.0,100,0.00,,,0.00,VWS V13.01,2013-09-02 07:26:00,
2013-09-02 02:31:00,73.4,73.4,29.83,East,83,0.0,0.0,100,0.00,,,0.00,VWS V13.01,2013-09-02 07:31:00,
2013-09-02 02:36:00,73.4,73.4,29.83,East,83,0.0,0.0,100,0.00,,,0.00,VWS V13.01,2013-09-02 07:36:00,
2013-09-02 02:41:00,73.4,73.4,29.83,East,83,0.0,0.0,100,0.00,,,0.00,VWS V13.01,2013-09-02 07:41:00,
2013-09-02 02:46:00,73.4,73.4,29.83,East,83,0.0,0.0,100,0.00,,,0.00,VWS V13.01,2013-09-02 07:46:00,
2013-09-02 02:51:00,73.4,73.4,29.83,East,83,0.0,0.0,100,0.00,,,0.00,VWS V13.01,2013-09-02 07:51:00,
2013-09-02 02:56:00,73.4,73.4,29.83,East,83,0.0,0.0,100,0.00,,,0.00,VWS V13.01,2013-09-02 07:56:00,
2013-09-02 03:01:00,73.4,73.4,29.83,East,83,0.0,0.0,100,0.00,,,0.00,VWS V13.01,2013-09-02 08:01:00,
2013-09-02 03:06:00,73.4,73.4,29.83,East,83,0.0,0.0,100,0.00,,,0.00,VWS V13.01,2013-09-02 08:06:00,
2013-09-02 03:11:00,73.4,73.4,29.83,East,83,0.0,0.0,100,0.00,,,0.00,VWS V13.01,2013-09-02 08:11:00,
2013-09-02 03:16:00,73.4,73.4,29.83,East,83,0.0,0.0,100,0.00,,,0.00,VWS V13.01,2013-09-02 08:16:00,
2013-09-02 03:21:00,73.3,73.3,29.83,East,83,0.0,0.0,100,0.00,,,0.00,VWS V13.01,2013-09-02 08:21:00,
2013-09-02 03:26:00,73.3,73.3,29.83,SSE,158,0.0,0.0,100,0.00,,,0.00,VWS V13.01,2013-09-02 08:26:00,
2013-09-02 03:31:00,73.3,73.3,29.83,SSE,158,0.0,0.0,100,0.00,,,0.00,VWS V13.01,2013-09-02 08:31:00,
2013-09-02 03:36:00,73.3,73.3,29.83,SSE,158,0.0,0.0,100,0.00,,,0.00,VWS V13.01,2013-09-02 08:36:00,
2013-09-02 03:41:00,73.1,73.1,29.83,SSE,158,0.0,0.0,100,0.00,,,0.00,VWS V13.01,2013-09-02 08:41:00,
2013-09-02 03:46:00,73.1,73.1,29.83,SW,222,0.0,0.0,100,0.00,,,0.00,VWS V13.01,2013-09-02 08:46:00,
2013-09-02 03:51:00,73.1,73.1,29.83,SW,227,0.0,0.0,100,0.00,,,0.00,VWS V13.01,2013-09-02 08:51:00,
2013-09-02 03:56:00,73.1,73.1,29.83,SW,231,0.0,0.0,100,0.00,,,0.00,VWS V13.01,2013-09-02 08:56:00,
2013-09-02 04:01:00,73.1,73.1,29.83,WSW,253,0.0,0.0,100,0.00,,,0.00,VWS V13.01,2013-09-02 09:01:00,
2013-09-02 04:06:00,73.1,73.1,29.83,WSW,253,0.0,0.0,100,0.00,,,0.00,VWS V13.01,2013-09-02 09:06:00,
2013-09-02 04:11:00,73.1,73.1,29.83,WSW,253,0.0,0.0,100,0.00,,,0.00,VWS V13.01,2013-09-02 09:11:00,
2013-09-02 04:15:00,73.1,73.1,29.83,WSW,253,0.0,0.0,100,0.00,,,0.00,VWS V13.01,2013-09-02 09:15:00,
2013-09-02 04:20:00,73.1,73.1,29.83,WSW,253,0.0,0.0,100,0.00,,,0.00,VWS V13.01,2013-09-02 09:20:00,
2013-09-02 04:25:00,73.1,73.1,29.83,SSW,195,0.0,0.0,100,0.00,,,0.00,VWS V13.01,2013-09-02 09:25:00,
2013-09-02 04:30:00,73.1,73.1,29.83,South,174,0.0,0.0,100,0.00,,,0.00,VWS V13.01,2013-09-02 09:30:00,
2013-09-02 04:35:00,73.1,73.1,29.83,South,174,0.0,0.0,100,0.00,,,0.00,VWS V13.01,2013-09-02 09:35:00,
2013-09-02 04:40:00,72.9,72.9,29.83,South,174,0.0,0.0,100,0.00,,,0.00,VWS V13.01,2013-09-02 09:40:00,
2013-09-02 04:45:00,72.9,72.9,29.86,South,174,0.0,0.0,100,0.00,,,0.00,VWS V13.01,2013-09-02 09:45:00,
2013-09-02 04:50:00,72.9,72.9,29.86,South,174,0.0,0.0,100,0.00,,,0.00,VWS V13.01,2013-09-02 09:50:00,
2013-09-02 04:55:00,72.9,72.9,29.86,South,174,0.0,0.0,100,0.00,,,0.00,VWS V13.01,2013-09-02 09:55:00,
2013-09-02 05:00:00,72.9,72.9,29.86,South,174,0.0,0.0,100,0.00,,,0.00,VWS V13.01,2013-09-02 10:00:00,
2013-09-02 05:05:00,72.9,72.9,29.86,SW,225,0.0,0.0,100,0.00,,,0.00,VWS V13.01,2013-09-02 10:05:00,
2013-09-02 05:10:00,72.9,72.9,29.86,SW,225,0.0,0.0,100,0.00,,,0.00,VWS V13.01,2013-09-02 10:10:00,
2013-09-02 05:15:00,72.9,72.9,29.86,SW,225,0.0,0.0,100,0.00,,,0.00,VWS V13.01,2013-09-02 10:15:00,
2013-09-02 05:20:00,72.9,72.9,29.86,SW,225,0.0,0.0,100,0.00,,,0.00,VWS V13.01,2013-09-02 10:20:00,
2013-09-02 05:25:00,72.9,72.9,29.86,SW,225,0.0,0.0,100,0.00,,,0.00,VWS V13.01,2013-09-02 10:25:00,
2013-09-02 05:30:00,72.9,72.9,29.86,SW,225,0.0,0.0,100,0.00,,,0.00,VWS V13.01,2013-09-02 10:30:00,
2013-09-02 05:35:00,72.9,72.9,29.86,SW,225,0.0,0.0,100,0.00,,,0.00,VWS V13.01,2013-09-02 10:35:00,
2013-09-02 05:40:00,72.7,72.7,29.86,SW,225,0.0,0.0,100,0.00,,,0.00,VWS V13.01,2013-09-02 10:40:00,
2013-09-02 05:45:00,72.7,72.7,29.86,SW,225,0.0,0.0,100,0.00,,,0.00,VWS V13.01,2013-09-02 10:45:00,
2013-09-02 05:50:00,72.7,72.7,29.86,SW,225,0.0,0.0,100,0.00,,,0.00,VWS V13.01,2013-09-02 10:50:00,
2013-09-02 05:55:00,72.7,72.7,29.86,SW,225,0.0,0.0,100,0.00,,,0.00,VWS V13.01,2013-09-02 10:55:00,
2013-09-02 06:00:00,72.7,72.7,29.86,SW,225,0.0,0.0,100,0.00,,,0.00,VWS V13.01,2013-09-02 11:00:00,
2013-09-02 06:05:00,72.7,72.7,29.86,SW,225,0.0,0.0,100,0.00,,,0.00,VWS V13.01,2013-09-02 11:05:00,
2013-09-02 06:10:00,72.7,72.7,29.86,SW,225,0.0,0.0,100,0.00,,,0.00,VWS V13.01,2013-09-02 11:10:00,
2013-09-02 06:15:00,72.7,72.7,29.86,SW,225,0.0,0.0,100,0.00,,,0.00,VWS V13.01,2013-09-02 11:15:00,
2013-09-02 06:20:00,72.7,72.7,29.86,SW,225,0.0,0.0,100,0.00,,,0.00,VWS V13.01,2013-09-02 11:20:00,
2013-09-02 06:25:00,72.9,72.9,29.86,SW,225,0.0,0.0,100,0.00,,,0.00,VWS V13.01,2013-09-02 11:25:00,
2013-09-02 06:30:00,72.9,72.9,29.86,SW,225,0.0,0.0,100,0.00,,,0.00,VWS V13.01,2013-09-02 11:30:00,
2013-09-02 06:35:00,72.7,72.7,29.86,SW,225,0.0,0.0,100,0.00,,,0.00,VWS V13.01,2013-09-02 11:35:00,
2013-09-02 06:40:00,72.7,72.7,29.86,SW,225,0.0,0.0,100,0.00,,,0.00,VWS V13.01,2013-09-02 11:40:00,
2013-09-02 06:45:00,72.7,72.7,29.86,SW,225,0.0,0.0,100,0.00,,,0.00,VWS V13.01,2013-09-02 11:45:00,
2013-09-02 06:50:00,72.7,72.7,29.86,SW,225,0.0,0.0,100,0.00,,,0.00,VWS V13.01,2013-09-02 11:50:00,
2013-09-02 06:55:00,72.7,72.7,29.86,SW,225,0.0,0.0,100,0.00,,,0.00,VWS V13.01,2013-09-02 11:55:00,
2013-09-02 07:00:00,72.7,72.7,29.89,SW,225,0.0,0.0,100,0.00,,,0.00,VWS V13.01,2013-09-02 12:00:00,
2013-09-02 07:05:00,72.7,72.7,29.89,SW,225,0.0,0.0,100,0.00,,,0.00,VWS V13.01,2013-09-02 12:05:00,
2013-09-02 07:10:00,72.7,72.7,29.89,SW,225,0.0,0.0,100,0.00,,,0.00,VWS V13.01,2013-09-02 12:10:00,
2013-09-02 07:15:00,72.7,72.7,29.89,SW,225,0.0,0.0,100,0.00,,,0.00,VWS V13.01,2013-09-02 12:15:00,
2013-09-02 07:20:00,72.7,72.7,29.89,SW,225,0.0,0.0,100,0.00,,,0.00,VWS V13.01,2013-09-02 12:20:00,
2013-09-02 07:25:00,72.7,72.7,29.89,SW,225,0.0,0.0,100,0.00,,,0.00,VWS V13.01,2013-09-02 12:25:00,
2013-09-02 07:30:00,72.9,72.9,29.89,SW,225,0.0,0.0,100,0.00,,,0.00,VWS V13.01,2013-09-02 12:30:00,
2013-09-02 07:35:00,72.9,72.9,29.89,SW,225,0.0,0.0,100,0.00,,,0.00,VWS V13.01,2013-09-02 12:35:00,
2013-09-02 07:40:00,73.1,73.1,29.89,SW,225,0.0,0.0,100,0.00,,,0.00,VWS V13.01,2013-09-02 12:40:00,
2013-09-02 07:45:00,73.1,73.1,29.89,South,182,0.0,0.0,100,0.00,,,0.00,VWS V13.01,2013-09-02 12:45:00,
2013-09-02 07:50:00,73.3,73.3,29.89,South,182,0.0,0.0,100,0.00,,,0.00,VWS V13.01,2013-09-02 12:50:00,
2013-09-02 07:55:00,73.3,73.3,29.89,South,170,0.0,0.0,100,0.00,,,0.00,VWS V13.01,2013-09-02 12:55:00,
2013-09-02 08:00:00,73.4,73.4,29.89,SE,129,0.0,0.0,100,0.00,,,0.00,VWS V13.01,2013-09-02 13:00:00,
2013-09-02 08:05:00,73.6,73.6,29.89,SE,129,0.0,0.0,100,0.00,,,0.00,VWS V13.01,2013-09-02 13:05:00,
2013-09-02 08:10:00,73.6,73.6,29.89,South,176,3.6,3.6,100,0.00,,,0.00,VWS V13.01,2013-09-02 13:10:00,
2013-09-02 08:15:00,73.6,73.6,29.89,South,175,0.0,0.0,100,0.00,,,0.00,VWS V13.01,2013-09-02 13:15:00,
2013-09-02 08:20:00,73.8,73.8,29.89,South,174,3.1,3.1,100,0.00,,,0.00,VWS V13.01,2013-09-02 13:20:00,
2013-09-02 08:25:00,74.0,74.0,29.89,South,177,0.0,0.0,100,0.00,,,0.00,VWS V13.01,2013-09-02 13:25:00,
2013-09-02 08:30:00,74.2,74.2,29.89,SSE,147,2.2,2.7,100,0.00,,,0.00,VWS V13.01,2013-09-02 13:30:00,
2013-09-02 08:35:00,74.5,74.5,29.89,SSE,168,0.0,0.0,100,0.00,,,0.00,VWS V13.01,2013-09-02 13:35:00,
2013-09-02 08:40:00,74.9,74.9,29.89,South,171,0.0,0.0,100,0.00,,,0.00,VWS V13.01,2013-09-02 13:40:00,
2013-09-02 08:45:00,74.9,74.9,29.89,SW,232,0.0,0.0,100,0.00,,,0.00,VWS V13.01,2013-09-02 13:45:00,
2013-09-02 08:50:00,75.1,75.1,29.89,WSW,254,0.0,0.0,100,0.00,,,0.00,VWS V13.01,2013-09-02 13:50:00,
2013-09-02 08:55:00,75.2,75.2,29.89,West,261,0.0,0.0,100,0.00,,,0.00,VWS V13.01,2013-09-02 13:55:00,
2013-09-02 09:00:00,75.6,75.6,29.92,WSW,248,0.0,0.0,100,0.00,,,0.00,VWS V13.01,2013-09-02 14:00:00,
2013-09-02 09:05:00,76.0,76.0,29.92,WSW,247,0.0,0.0,100,0.00,,,0.00,VWS V13.01,2013-09-02 14:05:00,
2013-09-02 09:10:00,76.5,76.5,29.92,WSW,247,0.0,0.0,100,0.00,,,0.00,VWS V13.01,2013-09-02 14:10:00,
2013-09-02 09:15:00,76.9,76.9,29.92,WSW,248,0.0,0.0,100,0.00,,,0.00,VWS V13.01,2013-09-02 14:15:00,
2013-09-02 09:20:00,77.4,77.4,29.92,WSW,249,0.0,0.0,100,0.00,,,0.00,VWS V13.01,2013-09-02 14:20:00,
2013-09-02 09:25:00,77.9,77.9,29.92,SSE,153,0.0,0.0,100,0.00,,,0.00,VWS V13.01,2013-09-02 14:25:00,
2013-09-02 09:30:00,78.8,78.8,29.92,SSE,156,0.0,0.0,100,0.00,,,0.00,VWS V13.01,2013-09-02 14:30:00,
2013-09-02 09:35:00,79.0,79.0,29.92,SSE,156,0.0,0.0,100,0.00,,,0.00,VWS V13.01,2013-09-02 14:35:00,
2013-09-02 09:40:00,78.8,77.9,29.92,NNE,25,0.0,0.0,97,0.00,,,0.00,VWS V13.01,2013-09-02 14:40:00,
2013-09-02 09:45:00,80.3,76.1,29.92,NE,47,0.0,0.0,87,0.00,,,0.00,VWS V13.01,2013-09-02 14:45:00,
2013-09-02 09:50:00,81.5,77.7,29.92,ESE,117,0.0,0.0,88,0.00,,,0.00,VWS V13.01,2013-09-02 14:50:00,
2013-09-02 09:55:00,81.9,77.7,29.92,ESE,105,0.0,0.0,87,0.00,,,0.00,VWS V13.01,2013-09-02 14:55:00,
2013-09-02 10:00:00,81.7,76.4,29.92,SW,231,2.7,3.1,84,0.00,,,0.00,VWS V13.01,2013-09-02 15:00:00,
2013-09-02 10:05:00,81.4,75.3,29.92,SSE,168,3.6,4.0,82,0.00,,,0.00,VWS V13.01,2013-09-02 15:05:00,
2013-09-02 10:10:00,80.8,74.8,29.92,ENE,66,0.0,3.6,82,0.00,,,0.00,VWS V13.01,2013-09-02 15:10:00,
2013-09-02 10:15:00,81.4,75.7,29.92,SSE,166,3.1,3.6,83,0.00,,,0.00,VWS V13.01,2013-09-02 15:15:00,
2013-09-02 10:20:00,81.9,75.9,29.92,South,171,0.0,0.0,82,0.00,,,0.00,VWS V13.01,2013-09-02 15:20:00,
2013-09-02 10:24:00,82.1,73.4,29.92,SE,130,2.7,4.0,75,0.00,,,0.00,VWS V13.01,2013-09-02 15:24:00,
2013-09-02 10:29:00,82.4,73.3,29.92,East,91,3.6,3.6,74,0.00,,,0.00,VWS V13.01,2013-09-02 15:29:00,
2013-09-02 10:34:00,83.2,72.4,29.92,NE,53,2.2,2.7,70,0.00,,,0.00,VWS V13.01,2013-09-02 15:34:00,
2013-09-02 10:39:00,84.6,73.3,29.92,NNE,30,0.0,0.0,69,0.00,,,0.00,VWS V13.01,2013-09-02 15:39:00,
2013-09-02 10:44:00,86.0,73.8,29.92,ENE,72,2.2,2.7,67,0.00,,,0.00,VWS V13.01,2013-09-02 15:44:00,
2013-09-02 10:49:00,86.8,73.1,29.92,NNE,14,0.0,0.0,64,0.00,,,0.00,VWS V13.01,2013-09-02 15:49:00,
2013-09-02 10:54:00,86.6,73.9,29.92,WSW,254,0.0,0.0,66,0.00,,,0.00,VWS V13.01,2013-09-02 15:54:00,
2013-09-02 10:59:00,87.1,73.5,29.92,WNW,289,3.1,3.6,64,0.00,,,0.00,VWS V13.01,2013-09-02 15:59:00,
2013-09-02 11:04:00,86.8,73.6,29.92,West,264,4.0,4.0,65,0.00,,,0.00,VWS V13.01,2013-09-02 16:04:00,
2013-09-02 11:09:00,86.6,73.9,29.92,NE,41,2.7,3.1,66,0.00,,,0.00,VWS V13.01,2013-09-02 16:09:00,
2013-09-02 11:14:00,87.5,74.7,29.92,East,80,3.1,3.1,66,0.00,,,0.00,VWS V13.01,2013-09-02 16:14:00,
2013-09-02 11:19:00,88.2,75.0,29.92,NNE,29,3.1,3.1,65,0.00,,,0.00,VWS V13.01,2013-09-02 16:19:00,
2013-09-02 11:24:00,88.6,73.9,29.92,North,358,0.0,2.2,62,0.00,,,0.00,VWS V13.01,2013-09-02 16:24:00,
2013-09-02 11:29:00,88.7,74.1,29.92,ESE,113,2.7,2.7,62,0.00,,,0.00,VWS V13.01,2013-09-02 16:29:00,
2013-09-02 11:34:00,88.9,74.7,29.92,NE,37,0.0,2.2,63,0.00,,,0.00,VWS V13.01,2013-09-02 16:34:00,
2013-09-02 11:39:00,89.5,73.8,29.92,ENE,67,5.8,6.3,60,0.00,,,0.00,VWS V13.01,2013-09-02 16:39:00,
2013-09-02 11:44:00,89.3,73.1,29.92,SE,143,2.7,4.9,59,0.00,,,0.00,VWS V13.01,2013-09-02 16:44:00,
2013-09-02 11:49:00,88.7,74.5,29.92,NE,39,3.1,3.1,63,0.00,,,0.00,VWS V13.01,2013-09-02 16:49:00,
2013-09-02 11:54:00,89.1,74.4,29.92,East,92,3.6,3.6,62,0.00,,,0.00,VWS V13.01,2013-09-02 16:54:00,
2013-09-02 11:59:00,89.6,74.4,29.92,East,95,2.7,2.7,61,0.00,,,0.00,VWS V13.01,2013-09-02 16:59:00,
2013-09-02 12:04:00,90.0,73.8,29.92,NNE,33,0.0,2.2,59,0.00,,,0.00,VWS V13.01,2013-09-02 17:04:00,
2013-09-02 12:09:00,89.3,74.1,29.92,West,272,2.7,2.7,61,0.00,,,0.00,VWS V13.01,2013-09-02 17:09:00,
2013-09-02 12:14:00,88.4,74.7,29.92,WSW,245,4.0,4.9,64,0.00,,,0.00,VWS V13.01,2013-09-02 17:14:00,
2013-09-02 12:19:00,87.7,73.0,29.92,WSW,251,3.6,3.6,62,0.00,,,0.00,VWS V13.01,2013-09-02 17:19:00,
2013-09-02 12:24:00,86.9,73.3,29.92,West,259,4.0,4.0,64,0.00,,,0.00,VWS V13.01,2013-09-02 17:24:00,
2013-09-02 12:29:00,86.6,73.0,29.89,SSE,147,4.0,5.4,64,0.00,,,0.00,VWS V13.01,2013-09-02 17:29:00,
2013-09-02 12:34:00,86.6,73.4,29.89,South,183,0.0,0.0,65,0.00,,,0.00,VWS V13.01,2013-09-02 17:34:00,
2013-09-02 12:39:00,86.6,73.9,29.89,SE,143,0.0,0.0,66,0.00,,,0.00,VWS V13.01,2013-09-02 17:39:00,
2013-09-02 12:44:00,87.1,74.4,29.92,NE,56,0.0,0.0,66,0.00,,,0.00,VWS V13.01,2013-09-02 17:44:00,
2013-09-02 12:49:00,87.7,73.5,29.92,NW,322,0.0,0.0,63,0.00,,,0.00,VWS V13.01,2013-09-02 17:49:00,
2013-09-02 12:54:00,87.8,73.2,29.92,South,177,2.7,2.7,62,0.00,,,0.00,VWS V13.01,2013-09-02 17:54:00,
2013-09-02 12:59:00,87.8,73.2,29.92,WSW,244,0.0,0.0,62,0.00,,,0.00,VWS V13.01,2013-09-02 17:59:00,
2013-09-02 13:04:00,88.0,72.9,29.92,WSW,238,0.0,0.0,61,0.00,,,0.00,VWS V13.01,2013-09-02 18:04:00,
2013-09-02 13:09:00,88.2,72.1,29.92,South,173,3.6,5.4,59,0.00,,,0.00,VWS V13.01,2013-09-02 18:09:00,
2013-09-02 13:14:00,88.7,73.6,29.92,SE,129,2.7,2.7,61,0.00,,,0.00,VWS V13.01,2013-09-02 18:14:00,
2013-09-02 13:19:00,89.1,72.4,29.92,South,183,3.1,3.1,58,0.00,,,0.00,VWS V13.01,2013-09-02 18:19:00,
2013-09-02 13:24:00,88.9,72.2,29.92,NNE,20,5.8,5.8,58,0.00,,,0.00,VWS V13.01,2013-09-02 18:24:00,
2013-09-02 13:29:00,89.3,73.6,29.89,ENE,73,2.7,2.7,60,0.00,,,0.00,VWS V13.01,2013-09-02 18:29:00,
2013-09-02 13:34:00,89.8,74.1,29.89,South,186,4.0,5.4,60,0.00,,,0.00,VWS V13.01,2013-09-02 18:34:00,
2013-09-02 13:39:00,89.6,73.9,29.89,SSE,163,4.9,4.9,60,0.00,,,0.00,VWS V13.01,2013-09-02 18:39:00,
2013-09-02 13:44:00,89.3,73.6,29.89,SSW,200,4.0,4.0,60,0.00,,,0.00,VWS V13.01,2013-09-02 18:44:00,
2013-09-02 13:49:00,89.3,73.6,29.89,SE,135,4.9,4.9,60,0.00,,,0.00,VWS V13.01,2013-09-02 18:49:00,
2013-09-02 13:54:00,89.3,73.1,29.89,ESE,110,0.0,0.0,59,0.00,,,0.00,VWS V13.01,2013-09-02 18:54:00,
2013-09-02 13:59:00,89.6,73.4,29.89,NW,315,2.7,3.6,59,0.00,,,0.00,VWS V13.01,2013-09-02 18:59:00,
2013-09-02 14:04:00,89.6,73.4,29.89,SSE,154,3.1,3.6,59,0.00,,,0.00,VWS V13.01,2013-09-02 19:04:00,
2013-09-02 14:09:00,89.5,73.2,29.89,SE,143,2.2,3.1,59,0.00,,,0.00,VWS V13.01,2013-09-02 19:09:00,
2013-09-02 14:14:00,89.8,73.6,29.89,WSW,245,2.2,2.7,59,0.00,,,0.00,VWS V13.01,2013-09-02 19:14:00,
2013-09-02 14:19:00,90.5,73.8,29.89,South,183,6.3,8.3,58,0.00,,,0.00,VWS V13.01,2013-09-02 19:19:00,
2013-09-02 14:24:00,90.0,73.8,29.89,South,171,2.7,2.7,59,0.00,,,0.00,VWS V13.01,2013-09-02 19:24:00,
2013-09-02 14:29:00,90.0,73.2,29.89,South,182,2.2,3.1,58,0.00,,,0.00,VWS V13.01,2013-09-02 19:29:00,
2013-09-02 14:34:00,90.0,73.2,29.89,East,95,0.0,0.0,58,0.00,,,0.00,VWS V13.01,2013-09-02 19:34:00,
2013-09-02 14:39:00,90.7,74.9,29.89,NNE,21,2.7,2.7,60,0.00,,,0.00,VWS V13.01,2013-09-02 19:39:00,
2013-09-02 14:44:00,90.5,74.3,29.86,NNE,25,2.2,2.7,59,0.00,,,0.00,VWS V13.01,2013-09-02 19:44:00,
2013-09-02 14:49:00,90.2,73.9,29.86,NNE,21,2.7,2.7,59,0.00,,,0.00,VWS V13.01,2013-09-02 19:49:00,
2013-09-02 14:54:00,89.8,74.1,29.86,NE,37,0.0,0.0,60,0.00,,,0.00,VWS V13.01,2013-09-02 19:54:00,
2013-09-02 14:59:00,90.0,73.2,29.86,ENE,68,3.6,3.6,58,0.00,,,0.00,VWS V13.01,2013-09-02 19:59:00,
2013-09-02 15:04:00,90.4,73.1,29.86,SE,127,3.1,3.6,57,0.00,,,0.00,VWS V13.01,2013-09-02 20:04:00,
2013-09-02 15:09:00,90.2,72.9,29.86,South,174,3.1,3.6,57,0.00,,,0.00,VWS V13.01,2013-09-02 20:09:00,
2013-09-02 15:14:00,89.8,72.6,29.86,WSW,249,0.0,2.2,57,0.00,,,0.00,VWS V13.01,2013-09-02 20:14:00,
2013-09-02 15:19:00,89.6,72.4,29.86,WSW,240,2.2,2.7,57,0.00,,,0.00,VWS V13.01,2013-09-02 20:19:00,
2013-09-02 15:24:00,89.5,72.2,29.86,WNW,285,2.2,2.2,57,0.00,,,0.00,VWS V13.01,2013-09-02 20:24:00,
2013-09-02 15:29:00,89.5,72.2,29.86,WNW,289,0.0,0.0,57,0.00,,,0.00,VWS V13.01,2013-09-02 20:29:00,
2013-09-02 15:34:00,90.2,72.9,29.86,NNE,31,4.0,4.0,57,0.00,,,0.00,VWS V13.01,2013-09-02 20:34:00,
2013-09-02 15:39:00,90.4,72.5,29.86,NE,55,0.0,0.0,56,0.00,,,0.00,VWS V13.01,2013-09-02 20:39:00,
2013-09-02 15:44:00,90.5,72.7,29.86,ESE,114,2.7,3.1,56,0.00,,,0.00,VWS V13.01,2013-09-02 20:44:00,
2013-09-02 15:49:00,90.0,73.2,29.86,ESE,110,2.7,3.1,58,0.00,,,0.00,VWS V13.01,2013-09-02 20:49:00,
2013-09-02 15:53:00,90.0,72.7,29.86,South,179,4.0,4.0,57,0.00,,,0.00,VWS V13.01,2013-09-02 20:53:00,
2013-09-02 15:58:00,89.5,72.2,29.86,SSE,165,3.1,3.1,57,0.00,,,0.00,VWS V13.01,2013-09-02 20:58:00,
2013-09-02 16:03:00,89.6,72.4,29.86,SSE,167,2.2,2.2,57,0.00,,,0.00,VWS V13.01,2013-09-02 21:03:00,
2013-09-02 16:08:00,90.0,72.7,29.86,West,267,2.7,3.6,57,0.00,,,0.00,VWS V13.01,2013-09-02 21:08:00,
2013-09-02 16:13:00,89.8,72.6,29.86,WSW,250,2.7,2.7,57,0.00,,,0.00,VWS V13.01,2013-09-02 21:13:00,
2013-09-02 16:18:00,90.0,72.7,29.86,South,181,2.7,3.1,57,0.00,,,0.00,VWS V13.01,2013-09-02 21:18:00,
2013-09-02 16:23:00,90.5,72.7,29.86,South,170,3.6,4.0,56,0.00,,,0.00,VWS V13.01,2013-09-02 21:23:00,
2013-09-02 16:28:00,91.1,72.7,29.86,SW,236,2.7,3.1,55,0.00,,,0.00,VWS V13.01,2013-09-02 21:28:00,
2013-09-02 16:33:00,91.6,72.6,29.86,West,276,0.0,2.2,54,0.00,,,0.00,VWS V13.01,2013-09-02 21:33:00,
2013-09-02 16:38:00,91.8,73.3,29.86,West,268,4.0,4.0,55,0.00,,,0.00,VWS V13.01,2013-09-02 21:38:00,
2013-09-02 16:43:00,91.3,72.8,29.83,NW,307,0.0,0.0,55,0.00,,,0.00,VWS V13.01,2013-09-02 21:43:00,
2013-09-02 16:48:00,91.3,71.2,29.83,NNE,14,2.7,2.7,52,0.00,,,0.00,VWS V13.01,2013-09-02 21:48:00,
2013-09-02 16:53:00,91.6,72.6,29.83,North,2,2.7,4.0,54,0.00,,,0.00,VWS V13.01,2013-09-02 21:53:00,
2013-09-02 16:58:00,92.0,70.7,29.83,WNW,288,6.3,6.3,50,0.00,,,0.00,VWS V13.01,2013-09-02 21:58:00,
2013-09-02 17:03:00,91.6,70.4,29.83,WNW,298,5.4,7.6,50,0.00,,,0.00,VWS V13.01,2013-09-02 22:03:00,
2013-09-02 17:08:00,91.3,70.0,29.83,WNW,293,2.7,6.7,50,0.00,,,0.00,VWS V13.01,2013-09-02 22:08:00,
2013-09-02 17:13:00,91.1,70.4,29.83,North,356,2.2,6.3,51,0.00,,,0.00,VWS V13.01,2013-09-02 22:13:00,
2013-09-02 17:18:00,91.3,72.3,29.83,North,360,0.0,2.7,54,0.00,,,0.00,VWS V13.01,2013-09-02 22:18:00,
2013-09-02 17:23:00,91.4,70.8,29.83,North,4,2.2,2.7,51,0.00,,,0.00,VWS V13.01,2013-09-02 22:23:00,
2013-09-02 17:28:00,91.8,70.5,29.83,NNW,341,3.1,4.0,50,0.00,,,0.00,VWS V13.01,2013-09-02 22:28:00,
2013-09-02 17:33:00,91.3,69.4,29.83,NW,309,8.3,8.3,49,0.00,,,0.00,VWS V13.01,2013-09-02 22:33:00,
2013-09-02 17:38:00,90.7,69.5,29.83,NW,305,5.4,7.6,50,0.00,,,0.00,VWS V13.01,2013-09-02 22:38:00,
2013-09-02 17:43:00,90.2,69.6,29.83,NNW,333,3.1,6.3,51,0.00,,,0.00,VWS V13.01,2013-09-02 22:43:00,
2013-09-02 17:48:00,90.2,69.6,29.83,NW,314,3.6,5.4,51,0.00,,,0.00,VWS V13.01,2013-09-02 22:48:00,
2013-09-02 17:53:00,90.2,69.0,29.83,NW,304,3.6,5.8,50,0.00,,,0.00,VWS V13.01,2013-09-02 22:53:00,
2013-09-02 17:58:00,90.2,70.2,29.83,NW,319,2.7,2.7,52,0.00,,,0.00,VWS V13.01,2013-09-02 22:58:00,
2013-09-02 18:03:00,89.6,68.6,29.86,NW,308,6.3,7.2,50,0.00,,,0.00,VWS V13.01,2013-09-02 23:03:00,
2013-09-02 18:08:00,89.3,68.8,29.86,WNW,298,4.5,4.5,51,0.00,,,0.00,VWS V13.01,2013-09-02 23:08:00,
2013-09-02 18:13:00,89.3,68.2,29.86,NW,305,4.0,4.9,50,0.00,,,0.00,VWS V13.01,2013-09-02 23:13:00,
2013-09-02 18:18:00,89.1,68.6,29.86,NW,319,2.7,3.6,51,0.00,,,0.00,VWS V13.01,2013-09-02 23:18:00,
2013-09-02 18:23:00,89.1,68.1,29.86,NW,316,2.7,3.6,50,0.00,,,0.00,VWS V13.01,2013-09-02 23:23:00,
2013-09-02 18:28:00,88.9,68.5,29.86,NNW,348,2.7,2.7,51,0.00,,,0.00,VWS V13.01,2013-09-02 23:28:00,
2013-09-02 18:33:00,88.7,68.9,29.86,NNW,337,2.7,2.7,52,0.00,,,0.00,VWS V13.01,2013-09-02 23:33:00,
2013-09-02 18:38:00,88.9,69.0,29.86,NW,325,2.2,2.2,52,0.00,,,0.00,VWS V13.01,2013-09-02 23:38:00,
2013-09-02 18:43:00,88.7,68.9,29.86,North,354,2.7,3.1,52,0.00,,,0.00,VWS V13.01,2013-09-02 23:43:00,
2013-09-02 18:48:00,88.6,68.7,29.86,North,353,2.7,4.0,52,0.00,,,0.00,VWS V13.01,2013-09-02 23:48:00,
2013-09-02 18:53:00,88.2,68.9,29.86,NW,319,0.0,0.0,53,0.00,,,0.00,VWS V13.01,2013-09-02 23:53:00,
2013-09-02 18:58:00,88.0,68.2,29.86,NW,313,3.1,3.1,52,0.00,,,0.00,VWS V13.01,2013-09-02 23:58:00,
2013-09-02 19:03:00,87.8,68.6,29.86,NNW,328,2.2,2.7,53,0.00,,,0.00,VWS V13.01,2013-09-03 00:03:00,
2013-09-02 19:08:00,87.7,68.4,29.86,NW,316,2.7,3.1,53,0.00,,,0.00,VWS V13.01,2013-09-03 00:08:00,
2013-09-02 19:13:00,87.1,68.5,29.86,NW,312,0.0,0.0,54,0.00,,,0.00,VWS V13.01,2013-09-03 00:13:00,
2013-09-02 19:18:00,86.9,69.4,29.86,NW,312,0.0,0.0,56,0.00,,,0.00,VWS V13.01,2013-09-03 00:18:00,
2013-09-02 19:23:00,86.6,69.0,29.86,NW,321,0.0,2.2,56,0.00,,,0.00,VWS V13.01,2013-09-03 00:23:00,
2013-09-02 19:28:00,86.0,68.5,29.86,North,350,0.0,2.2,56,0.00,,,0.00,VWS V13.01,2013-09-03 00:28:00,
2013-09-02 19:33:00,85.3,68.4,29.86,NNW,336,0.0,0.0,57,0.00,,,0.00,VWS V13.01,2013-09-03 00:33:00,
2013-09-02 19:38:00,84.8,67.9,29.86,NNW,340,0.0,0.0,57,0.00,,,0.00,VWS V13.01,2013-09-03 00:38:00,
2013-09-02 19:43:00,84.2,67.4,29.86,NNW,340,0.0,0.0,57,0.00,,,0.00,VWS V13.01,2013-09-03 00:43:00,
2013-09-02 19:48:00,83.7,67.4,29.86,NNW,340,0.0,0.0,58,0.00,,,0.00,VWS V13.01,2013-09-03 00:48:00,
2013-09-02 19:53:00,83.3,67.0,29.86,North,351,0.0,0.0,58,0.00,,,0.00,VWS V13.01,2013-09-03 00:53:00,
2013-09-02 19:58:00,82.8,66.5,29.86,North,351,0.0,0.0,58,0.00,,,0.00,VWS V13.01,2013-09-03 00:58:00,
2013-09-02 20:03:00,82.4,66.7,29.86,North,351,0.0,0.0,59,0.00,,,0.00,VWS V13.01,2013-09-03 01:03:00,
2013-09-02 20:08:00,82.1,66.3,29.86,North,354,0.0,0.0,59,0.00,,,0.00,VWS V13.01,2013-09-03 01:08:00,
2013-09-02 20:13:00,81.9,65.7,29.86,North,6,2.7,2.7,58,0.00,,,0.00,VWS V13.01,2013-09-03 01:13:00,
2013-09-02 20:18:00,81.7,66.0,29.86,North,357,0.0,2.7,59,0.00,,,0.00,VWS V13.01,2013-09-03 01:18:00,
2013-09-02 20:23:00,81.4,66.6,29.86,NNE,21,0.0,0.0,61,0.00,,,0.00,VWS V13.01,2013-09-03 01:23:00,
2013-09-02 20:28:00,80.6,65.5,29.86,NNE,21,2.7,3.1,60,0.00,,,0.00,VWS V13.01,2013-09-03 01:28:00,
2013-09-02 20:33:00,80.3,65.1,29.86,NNE,21,0.0,0.0,60,0.00,,,0.00,VWS V13.01,2013-09-03 01:33:00,
2013-09-02 20:38:00,79.9,65.8,29.86,NNE,21,0.0,0.0,62,0.00,,,0.00,VWS V13.01,2013-09-03 01:38:00,
2013-09-02 20:43:00,79.6,64.9,29.86,NNE,21,0.0,0.0,61,0.00,,,0.00,VWS V13.01,2013-09-03 01:43:00,
2013-09-02 20:48:00,79.4,65.2,29.86,NNE,21,0.0,0.0,62,0.00,,,0.00,VWS V13.01,2013-09-03 01:48:00,
2013-09-02 20:53:00,79.0,65.4,29.86,NNE,21,0.0,0.0,63,0.00,,,0.00,VWS V13.01,2013-09-03 01:53:00,
2013-09-02 20:58:00,78.7,65.0,29.86,NNE,21,0.0,0.0,63,0.00,,,0.00,VWS V13.01,2013-09-03 01:58:00,
2013-09-02 21:03:00,78.3,65.1,29.89,NNE,21,0.0,0.0,64,0.00,,,0.00,VWS V13.01,2013-09-03 02:03:00,
2013-09-02 21:08:00,77.9,65.2,29.89,NNE,21,0.0,0.0,65,0.00,,,0.00,VWS V13.01,2013-09-03 02:08:00,
2013-09-02 21:13:00,77.6,65.3,29.89,NNE,21,0.0,0.0,66,0.00,,,0.00,VWS V13.01,2013-09-03 02:13:00,
2013-09-02 21:18:00,77.2,65.4,29.89,NNE,21,0.0,0.0,67,0.00,,,0.00,VWS V13.01,2013-09-03 02:18:00,
2013-09-02 21:23:00,76.7,65.3,29.89,NNE,21,0.0,0.0,68,0.00,,,0.00,VWS V13.01,2013-09-03 02:23:00,
2013-09-02 21:28:00,76.3,65.8,29.89,NNE,21,0.0,0.0,70,0.00,,,0.00,VWS V13.01,2013-09-03 02:28:00,
2013-09-02 21:33:00,76.1,65.7,29.89,NNE,21,0.0,0.0,70,0.00,,,0.00,VWS V13.01,2013-09-03 02:33:00,
2013-09-02 21:37:00,76.0,65.9,29.89,NNE,21,0.0,0.0,71,0.00,,,0.00,VWS V13.01,2013-09-03 02:37:00,
2013-09-02 21:42:00,75.8,65.7,29.89,NNE,21,0.0,0.0,71,0.00,,,0.00,VWS V13.01,2013-09-03 02:42:00,
2013-09-02 21:47:00,75.2,66.0,29.89,NNE,21,0.0,0.0,73,0.00,,,0.00,VWS V13.01,2013-09-03 02:47:00,
2013-09-02 21:52:00,74.7,65.5,29.89,NNE,21,0.0,0.0,73,0.00,,,0.00,VWS V13.01,2013-09-03 02:52:00,
2013-09-02 21:57:00,74.5,66.1,29.89,NNE,21,0.0,0.0,75,0.00,,,0.00,VWS V13.01,2013-09-03 02:57:00,
2013-09-02 22:02:00,74.3,66.7,29.89,NNE,21,0.0,0.0,77,0.00,,,0.00,VWS V13.01,2013-09-03 03:02:00,
2013-09-02 22:07:00,74.0,66.3,29.89,NNE,21,0.0,0.0,77,0.00,,,0.00,VWS V13.01,2013-09-03 03:07:00,
2013-09-02 22:12:00,73.8,66.2,29.89,NNE,21,0.0,0.0,77,0.00,,,0.00,VWS V13.01,2013-09-03 03:12:00,
2013-09-02 22:17:00,73.6,66.7,29.92,NNE,21,0.0,0.0,79,0.00,,,0.00,VWS V13.01,2013-09-03 03:17:00,
2013-09-02 22:22:00,73.6,67.1,29.92,NNE,21,0.0,0.0,80,0.00,,,0.00,VWS V13.01,2013-09-03 03:22:00,
2013-09-02 22:27:00,73.4,66.5,29.92,NNE,21,0.0,0.0,79,0.00,,,0.00,VWS V13.01,2013-09-03 03:27:00,
2013-09-02 22:32:00,73.3,66.4,29.89,NNE,21,0.0,0.0,79,0.00,,,0.00,VWS V13.01,2013-09-03 03:32:00,
2013-09-02 22:37:00,72.9,66.0,29.89,NNE,21,0.0,0.0,79,0.00,,,0.00,VWS V13.01,2013-09-03 03:37:00,
2013-09-02 22:42:00,72.5,66.4,29.89,NNE,21,0.0,0.0,81,0.00,,,0.00,VWS V13.01,2013-09-03 03:42:00,
2013-09-02 22:47:00,72.4,66.2,29.92,NNE,21,0.0,0.0,81,0.00,,,0.00,VWS V13.01,2013-09-03 03:47:00,
2013-09-02 22:52:00,72.2,66.4,29.92,NNE,21,0.0,0.0,82,0.00,,,0.00,VWS V13.01,2013-09-03 03:52:00,
2013-09-02 22:57:00,72.0,66.2,29.92,NNE,21,0.0,0.0,82,0.00,,,0.00,VWS V13.01,2013-09-03 03:57:00,
2013-09-02 23:01:00,71.8,66.4,29.92,NNE,21,0.0,0.0,83,0.00,,,0.00,VWS V13.01,2013-09-03 04:01:00,
2013-09-02 23:02:00,71.8,66.4,29.92,NNE,21,0.0,0.0,83,0.00,,,0.00,VWS V13.01,2013-09-03 04:02:00,
2013-09-02 23:07:00,71.8,67.8,29.92,NNE,21,0.0,0.0,87,0.00,,,0.00,VWS V13.01,2013-09-03 04:07:00,
2013-09-02 23:12:00,71.5,67.1,29.92,NNE,21,0.0,0.0,86,0.00,,,0.00,VWS V13.01,2013-09-03 04:12:00,
2013-09-02 23:17:00,71.6,67.6,29.92,NNE,21,0.0,0.0,87,0.00,,,0.00,VWS V13.01,2013-09-03 04:17:00,
2013-09-02 23:22:00,71.5,67.4,29.92,NNE,21,0.0,0.0,87,0.00,,,0.00,VWS V13.01,2013-09-03 04:22:00,
2013-09-02 23:27:00,71.5,67.4,29.92,NNE,21,0.0,0.0,87,0.00,,,0.00,VWS V13.01,2013-09-03 04:27:00,
2013-09-02 23:32:00,71.3,67.2,29.92,NNE,21,0.0,0.0,87,0.00,,,0.00,VWS V13.01,2013-09-03 04:32:00,
2013-09-02 23:37:00,71.1,67.0,29.92,NNE,21,0.0,0.0,87,0.00,,,0.00,VWS V13.01,2013-09-03 04:37:00,
2013-09-02 23:42:00,71.1,67.7,29.92,NNE,21,0.0,0.0,89,0.00,,,0.00,VWS V13.01,2013-09-03 04:42:00,
2013-09-02 23:47:00,70.9,67.8,29.92,NNE,21,0.0,0.0,90,0.00,,,0.00,VWS V13.01,2013-09-03 04:47:00,
2013-09-02 23:52:00,70.7,67.7,29.92,NNE,21,0.0,0.0,90,0.00,,,0.00,VWS V13.01,2013-09-03 04:52:00,
2013-09-02 23:57:00,70.6,67.5,29.92,NNE,21,0.0,0.0,90,0.00,,,0.00,VWS V13.01,2013-09-03 04:57:00,